Time;durP1;ratioP1;P1;durP2;ratioP2;P2;SDS_P1;SDS_P2;PMS_P1;PMS_P2;Temp;Humidity;BMP_temperature;BMP_pressure;BME280_temperature;BME280_humidity;BME280_pressure;Samples;Min_cycle;Max_cycle;Signal;HPM_P1;HPM_P2
2021/05/05 00:00:33;;;;;;;9.03;2.60;;;;;;;8.46;68.35;99431.21;1859136;77;21130;-81
2021/05/05 00:03:05;;;;;;;3.65;1.92;;;;;;;8.45;68.42;99426.84;1848120;77;21146;-81
2021/05/05 00:05:34;;;;;;;3.35;1.55;;;;;;;8.43;68.48;99415.87;1825304;78;21166;-81
2021/05/05 00:08:02;;;;;;;5.80;3.00;;;;;;;8.40;68.53;99422.37;1825655;78;21815;-81
2021/05/05 00:10:30;;;;;;;3.52;2.37;;;;;;;8.40;68.65;99425.87;1825517;78;21210;-81
2021/05/05 00:12:59;;;;;;;6.08;1.98;;;;;;;8.40;68.72;99422.37;1825333;78;21130;-81
2021/05/05 00:15:27;;;;;;;4.83;2.37;;;;;;;8.42;68.78;99416.31;1825463;78;21144;-81
2021/05/05 00:17:55;;;;;;;3.85;2.15;;;;;;;8.43;68.83;99414.15;1825596;78;21155;-81
2021/05/05 00:20:22;;;;;;;4.40;2.50;;;;;;;8.46;68.86;99412.86;1825595;78;21950;-81
2021/05/05 00:22:50;;;;;;;4.40;2.37;;;;;;;8.47;68.91;99412.45;1825425;78;21594;-82
2021/05/05 00:25:17;;;;;;;2.98;1.90;;;;;;;8.48;68.88;99400.64;1800627;78;21174;-81
2021/05/05 00:27:45;;;;;;;3.55;2.00;;;;;;;8.48;68.91;99397.14;1825459;78;21056;-81
2021/05/05 00:30:14;;;;;;;4.60;1.90;;;;;;;8.48;68.90;99401.08;1825553;78;21142;-78
2021/05/05 00:32:42;;;;;;;3.40;1.62;;;;;;;8.48;68.86;99398.45;1824531;78;22124;-82
2021/05/05 00:35:11;;;;;;;2.77;1.80;;;;;;;8.49;68.89;99406.78;1822562;78;21162;-82
2021/05/05 00:37:39;;;;;;;2.70;1.90;;;;;;;8.49;68.93;99402.41;1822508;78;21201;-82
2021/05/05 00:40:07;;;;;;;2.95;1.65;;;;;;;8.53;68.95;99406.83;1822377;78;21151;-82
2021/05/05 00:42:35;;;;;;;5.62;3.47;;;;;;;8.60;68.92;99405.17;1822470;78;21134;-81
2021/05/05 00:45:06;;;;;;;4.92;2.55;;;;;;;8.64;68.82;99410.02;1822342;78;21853;-83
2021/05/05 00:47:33;;;;;;;8.08;3.72;;;;;;;8.67;68.74;99410.94;1822604;78;21181;-82
2021/05/05 00:50:00;;;;;;;7.25;2.30;;;;;;;8.69;68.56;99406.99;1822535;78;21155;-82
2021/05/05 00:52:27;;;;;;;5.05;2.12;;;;;;;8.67;68.49;99405.69;1822466;78;21167;-82
2021/05/05 00:54:54;;;;;;;4.05;2.90;;;;;;;8.66;68.47;99404.36;1822544;78;21104;-82
2021/05/05 00:57:22;;;;;;;2.62;1.72;;;;;;;8.64;68.44;99406.95;1822432;78;21809;-82
2021/05/05 00:59:49;;;;;;;3.67;2.12;;;;;;;8.61;68.38;99402.98;1822627;78;21194;-82
2021/05/05 01:02:16;;;;;;;3.50;1.75;;;;;;;8.57;68.44;99406.44;1822568;78;21568;-82
2021/05/05 01:04:44;;;;;;;3.58;1.72;;;;;;;8.56;68.43;99404.69;1822672;78;21142;-82
2021/05/05 01:07:11;;;;;;;3.42;1.80;;;;;;;8.52;68.46;99404.18;1822636;78;21202;-82
2021/05/05 01:09:40;;;;;;;3.45;1.82;;;;;;;8.46;68.38;99405.43;1822614;78;21822;-82
2021/05/05 01:12:10;;;;;;;5.35;2.05;;;;;;;8.41;68.45;99410.59;1822339;78;21154;-82
2021/05/05 01:14:38;;;;;;;4.00;1.70;;;;;;;8.36;68.48;99410.97;1822530;78;21182;-82
2021/05/05 01:17:06;;;;;;;7.83;2.00;;;;;;;8.28;68.44;99410.00;1822601;78;21130;-82
2021/05/05 01:19:34;;;;;;;4.50;1.90;;;;;;;8.21;68.49;99411.65;1822543;78;21103;-83
2021/05/05 01:22:01;;;;;;;4.05;1.82;;;;;;;8.17;68.55;99413.78;1822776;78;22806;-83
2021/05/05 01:24:28;;;;;;;3.37;1.77;;;;;;;8.09;68.58;99408.45;1822527;78;21289;-82
2021/05/05 01:26:56;;;;;;;7.10;1.90;;;;;;;8.03;68.68;99410.09;1822609;78;21107;-82
2021/05/05 01:29:23;;;;;;;9.13;2.17;;;;;;;7.97;68.75;99409.13;1822514;78;21601;-82
2021/05/05 01:31:50;;;;;;;4.45;1.75;;;;;;;7.90;68.92;99413.87;1822652;78;21190;-83
2021/05/05 01:34:17;;;;;;;5.50;2.00;;;;;;;7.85;69.02;99418.16;1825410;78;21874;-83
2021/05/05 01:36:45;;;;;;;3.60;1.90;;;;;;;7.83;69.23;99412.41;1825743;78;21055;-83
2021/05/05 01:39:17;;;;;;;6.87;2.00;;;;;;;7.82;69.34;99412.86;1825852;78;21527;-83
2021/05/05 01:41:46;;;;;;;4.58;1.90;;;;;;;7.81;69.47;99404.56;1825827;78;21130;-83
2021/05/05 01:44:14;;;;;;;5.20;2.37;;;;;;;7.78;69.52;99406.69;1825857;78;21164;-83
2021/05/05 01:46:47;;;;;;;5.72;2.50;;;;;;;7.77;69.66;99401.42;1825694;78;21880;-83
2021/05/05 01:49:23;;;;;;;6.80;2.05;;;;;;;7.74;69.69;99407.95;1825748;78;21174;-83
2021/05/05 01:51:53;;;;;;;4.08;1.98;;;;;;;7.70;69.77;99404.39;1820492;78;21158;-83
2021/05/05 01:54:22;;;;;;;3.77;1.77;;;;;;;7.65;69.86;99399.95;1825536;78;21150;-83
2021/05/05 01:56:49;;;;;;;4.45;1.98;;;;;;;7.59;69.94;99402.05;1825825;78;21489;-83
2021/05/05 01:59:16;;;;;;;3.60;1.87;;;;;;;7.54;70.11;99405.88;1825480;78;21870;-81
2021/05/05 02:01:46;;;;;;;5.75;1.75;;;;;;;7.50;70.26;99398.84;1825419;78;21055;-82
2021/05/05 02:04:14;;;;;;;3.60;1.82;;;;;;;7.49;70.42;99400.13;1825420;77;21170;-82
2021/05/05 02:06:43;;;;;;;3.98;2.05;;;;;;;7.47;70.61;99393.98;1825556;78;21159;-82
2021/05/05 02:09:10;;;;;;;4.50;2.10;;;;;;;7.47;70.74;99395.30;1825495;78;21728;-82
2021/05/05 02:11:38;;;;;;;4.60;2.02;;;;;;;7.49;70.99;99389.25;1825495;78;21875;-82
2021/05/05 02:14:05;;;;;;;3.27;2.30;;;;;;;7.58;71.21;99385.87;1825385;77;21199;-81
2021/05/05 02:16:35;;;;;;;4.05;2.08;;;;;;;7.61;71.17;99385.92;1825296;77;21142;-81
2021/05/05 02:19:05;;;;;;;5.05;2.12;;;;;;;7.63;71.15;99385.95;1825338;78;21637;-81
2021/05/05 02:21:33;;;;;;;5.12;2.60;;;;;;;7.58;71.13;99382.84;1825481;78;21174;-81
2021/05/05 02:24:01;;;;;;;6.67;2.75;;;;;;;7.57;71.26;99379.76;1825335;78;21823;-81
2021/05/05 02:26:29;;;;;;;2.40;1.80;;;;;;;7.57;71.28;99376.27;1800285;78;21182;-81
2021/05/05 02:28:56;;;;;;;5.67;2.42;;;;;;;7.53;71.42;99383.63;1825438;77;21182;-82
2021/05/05 02:31:23;;;;;;;4.30;2.30;;;;;;;7.52;71.51;99378.80;1825239;78;21194;-81
2021/05/05 02:33:52;;;;;;;7.28;3.10;;;;;;;7.49;71.59;99376.16;1825088;78;21130;-81
2021/05/05 02:36:20;;;;;;;6.25;2.62;;;;;;;7.48;71.69;99373.51;1825249;78;21874;-82
2021/05/05 02:38:48;;;;;;;6.83;2.40;;;;;;;7.45;71.85;99376.97;1825495;78;21182;-82
2021/05/05 02:41:16;;;;;;;4.60;2.35;;;;;;;7.41;71.85;99375.14;1825508;78;21163;-82
2021/05/05 02:43:43;;;;;;;5.72;2.37;;;;;;;7.40;72.02;99376.02;1825287;77;21194;-82
2021/05/05 02:46:11;;;;;;;3.80;2.17;;;;;;;7.38;72.10;99375.11;1825425;78;21194;-81
2021/05/05 02:48:38;;;;;;;5.08;2.27;;;;;;;7.38;72.17;99372.49;1825374;78;22038;-81
2021/05/05 02:51:05;;;;;;;7.83;2.40;;;;;;;7.33;72.20;99377.63;1825418;78;21147;-82
2021/05/05 02:53:32;;;;;;;5.10;2.30;;;;;;;7.30;72.31;99377.61;1825420;77;21182;-82
2021/05/05 02:55:59;;;;;;;5.35;2.67;;;;;;;7.27;72.38;99384.53;1825321;78;21162;-82
2021/05/05 02:58:27;;;;;;;6.53;2.42;;;;;;;7.25;72.40;99377.08;1825536;77;21115;-83
2021/05/05 03:00:54;;;;;;;5.03;2.10;;;;;;;7.20;72.51;99376.98;1825545;78;21877;-83
2021/05/05 03:03:21;;;;;;;5.90;2.35;;;;;;;7.14;72.52;99372.53;1825472;78;21202;-82
2021/05/05 03:05:48;;;;;;;7.20;2.20;;;;;;;7.11;72.69;99375.53;1825568;78;21098;-82
2021/05/05 03:08:17;;;;;;;5.87;2.30;;;;;;;7.09;72.84;99375.93;1825486;78;21317;-82
2021/05/05 03:10:46;;;;;;;6.62;2.42;;;;;;;7.05;72.89;99375.43;1825665;78;21095;-82
2021/05/05 03:13:13;;;;;;;4.67;2.62;;;;;;;7.03;73.02;99370.16;1825355;78;21877;-82
2021/05/05 03:15:40;;;;;;;10.13;2.00;;;;;;;7.04;73.11;99369.73;1825291;78;21669;-82
2021/05/05 03:18:07;;;;;;;7.10;2.40;;;;;;;7.04;73.13;99375.87;1825586;78;21182;-82
2021/05/05 03:20:34;;;;;;;6.33;2.98;;;;;;;7.04;73.24;99375.87;1825693;78;21131;-82
2021/05/05 03:23:02;;;;;;;5.47;2.52;;;;;;;7.05;73.29;99371.07;1825782;78;21182;-82
2021/05/05 03:25:29;;;;;;;6.95;2.95;;;;;;;7.08;73.35;99371.13;1825714;78;21933;-82
2021/05/05 03:27:56;;;;;;;6.65;2.50;;;;;;;7.10;73.32;99373.34;1825555;78;21127;-82
2021/05/05 03:30:24;;;;;;;6.58;2.52;;;;;;;7.15;73.38;99366.86;1825574;78;21197;-82
2021/05/05 03:32:51;;;;;;;4.37;2.02;;;;;;;7.40;74.17;99364.23;1825299;77;21199;-82
2021/05/05 03:35:18;;;;;;;4.95;1.80;;;;;;;8.56;76.05;99367.97;1822171;78;21158;-82
2021/05/05 03:37:45;;;;;;;5.22;1.77;;;;;;;10.01;75.51;99363.41;1822383;78;21947;-83
2021/05/05 03:40:14;;;;;;;4.15;1.95;;;;;;;11.39;74.10;99358.03;1822234;78;21186;-82
2021/05/05 03:42:44;;;;;;;4.47;1.92;;;;;;;12.69;72.44;99354.55;1792955;78;21190;-82
2021/05/05 03:45:11;;;;;;;4.83;2.02;;;;;;;13.70;70.28;99357.76;1822381;77;21625;-82
2021/05/05 03:47:38;;;;;;;6.03;1.80;;;;;;;14.76;68.92;99355.61;1825152;77;21171;-82
2021/05/05 03:50:07;;;;;;;5.37;2.05;;;;;;;15.76;67.17;99351.80;1824973;78;21939;-82
2021/05/05 03:52:38;;;;;;;4.33;2.15;;;;;;;16.65;65.42;99360.63;1806227;78;21155;-82
2021/05/05 03:55:07;;;;;;;4.00;1.77;;;;;;;17.58;64.45;99353.52;1824620;78;21206;-82
2021/05/05 03:57:34;;;;;;;4.53;1.47;;;;;;;18.44;62.42;99355.16;1824958;77;21631;-83
2021/05/05 04:02:38;;;;;;;4.83;1.80;;;;;;;20.34;59.61;99355.11;1877734;74;27886;-91
2021/05/05 04:05:06;;;;;;;3.12;1.50;;;;;;;21.07;58.38;99355.89;1899998;75;21136;-92
2021/05/05 04:07:33;;;;;;;3.05;1.67;;;;;;;21.60;56.51;99351.08;1884252;75;21870;-90
2021/05/05 04:10:00;;;;;;;4.33;1.55;;;;;;;22.18;55.31;99353.02;1901646;75;21155;-95
2021/05/05 04:12:29;;;;;;;2.50;1.40;;;;;;;22.90;54.20;99349.22;1901394;75;21128;-94
2021/05/05 04:17:46;;;;;;;3.02;1.20;;;;;;;23.89;50.16;99354.22;1816307;78;23426;-89
2021/05/05 04:20:16;;;;;;;4.12;1.62;;;;;;;23.99;50.00;99353.66;1789347;80;21222;-88
2021/05/05 04:22:45;;;;;;;2.33;1.60;;;;;;;24.53;49.31;99352.61;1724177;83;22072;-87
2021/05/05 04:25:13;;;;;;;2.30;1.40;;;;;;;25.11;48.51;99357.89;1754521;81;21172;-86
2021/05/05 04:27:41;;;;;;;2.45;1.12;;;;;;;25.48;46.48;99358.00;1724611;83;21483;-86
2021/05/05 04:30:12;;;;;;;3.58;1.37;;;;;;;25.51;45.86;99344.81;1754709;81;21187;-86
2021/05/05 04:32:41;;;;;;;2.22;1.35;;;;;;;25.86;45.54;99345.41;1724372;83;21167;-82
2021/05/05 04:35:09;;;;;;;4.20;1.50;;;;;;;26.57;44.88;99347.31;1754296;81;22055;-80
2021/05/05 04:37:36;;;;;;;3.52;1.62;;;;;;;27.06;44.02;99346.00;1724223;83;21233;-81
2021/05/05 04:40:06;;;;;;;1.22;1.02;;;;;;;27.49;42.62;99345.02;1745774;81;21224;-79
2021/05/05 04:42:33;;;;;;;3.12;1.62;;;;;;;27.54;42.16;99345.08;1749487;81;21240;-81
2021/05/05 04:45:02;;;;;;;3.92;1.47;;;;;;;28.00;41.19;99346.97;1749793;82;21144;-86
2021/05/05 04:47:29;;;;;;;4.00;1.67;;;;;;;28.10;40.42;99346.23;1749682;81;21889;-86
2021/05/05 04:49:56;;;;;;;6.42;1.70;;;;;;;28.41;40.17;99337.27;1750021;82;21176;-89
2021/05/05 04:52:24;;;;;;;2.75;1.60;;;;;;;28.23;39.06;99335.88;1750132;82;21191;-90
2021/05/05 04:54:53;;;;;;;3.92;1.70;;;;;;;27.28;38.83;99330.63;1750450;82;21129;-90
2021/05/05 04:57:23;;;;;;;5.20;1.60;;;;;;;27.67;38.87;99331.59;1748214;81;21160;-86
2021/05/05 04:59:58;;;;;;;3.20;1.27;;;;;;;28.25;38.95;99331.25;1724393;83;21906;-86
2021/05/05 05:02:25;;;;;;;4.75;1.50;;;;;;;28.84;37.79;99323.36;1754394;81;21200;-86
2021/05/05 05:04:53;;;;;;;3.85;1.60;;;;;;;29.09;37.23;99321.53;1724506;83;21219;-86
2021/05/05 05:07:20;;;;;;;3.33;1.75;;;;;;;29.74;37.26;99322.98;1754097;81;21594;-86
2021/05/05 05:09:47;;;;;;;4.75;1.80;;;;;;;30.23;36.10;99318.27;1756732;81;21180;-85
2021/05/05 05:12:14;;;;;;;2.85;1.50;;;;;;;30.13;35.22;99320.00;1756956;81;21890;-86
2021/05/05 05:14:41;;;;;;;3.17;1.65;;;;;;;30.08;34.69;99317.63;1756539;81;21505;-82
2021/05/05 05:17:09;;;;;;;3.20;1.55;;;;;;;30.16;34.50;99327.37;1757862;81;21258;-82
2021/05/05 05:19:41;;;;;;;3.70;1.60;;;;;;;30.48;34.19;99317.67;1759789;81;21211;-87
2021/05/05 05:22:09;;;;;;;;;;;;;;;30.68;33.84;99325.07;1711552;81;21226;-87
2021/05/05 05:24:36;;;;;;;3.02;1.57;;;;;;;30.57;32.75;99316.94;1759771;81;22855;-86
2021/05/05 05:27:04;;;;;;;4.67;1.70;;;;;;;30.50;32.91;99319.77;1760197;81;21216;-86
2021/05/05 05:29:31;;;;;;;7.00;4.92;;;;;;;30.47;32.20;99318.18;1759718;81;21156;-86
2021/05/05 05:31:59;;;;;;;26.77;13.53;;;;;;;30.27;32.35;99320.24;1759479;81;21678;-86
2021/05/05 05:34:26;;;;;;;17.57;10.05;;;;;;;29.22;31.31;99324.22;1759739;81;21156;-86
2021/05/05 05:36:53;;;;;;;9.50;4.85;;;;;;;26.72;30.79;99322.55;1759510;81;21141;-85
2021/05/05 05:39:20;;;;;;;8.88;7.75;;;;;;;23.95;31.62;99329.70;1729421;83;21199;-85
2021/05/05 05:41:47;;;;;;;9.73;8.73;;;;;;;21.90;32.97;99335.03;1759586;81;21167;-85
2021/05/05 05:44:16;;;;;;;27.40;24.45;;;;;;;20.45;34.05;99341.36;1759677;81;21227;-84
2021/05/05 05:46:43;;;;;;;20.92;16.12;;;;;;;19.22;35.09;99345.23;1759567;81;21212;-84
2021/05/05 05:49:11;;;;;;;18.98;15.63;;;;;;;18.25;36.23;99347.30;1759653;81;22004;-84
2021/05/05 05:51:38;;;;;;;28.80;23.05;;;;;;;17.44;37.00;99359.67;1759933;81;21203;-84
2021/05/05 05:54:06;;;;;;;5.90;4.25;;;;;;;16.73;38.06;99355.14;1759778;81;21175;-84
2021/05/05 05:56:33;;;;;;;4.75;3.30;;;;;;;16.20;39.00;99360.66;1759520;81;21200;-84
2021/05/05 05:59:00;;;;;;;5.80;3.25;;;;;;;15.75;39.67;99357.56;1759712;81;21219;-83
2021/05/05 06:01:28;;;;;;;9.60;7.33;;;;;;;15.38;40.39;99355.98;1759494;81;21770;-84
2021/05/05 06:03:55;;;;;;;8.23;4.37;;;;;;;15.08;41.00;99363.52;1759560;81;21160;-84
2021/05/05 06:06:22;;;;;;;12.88;6.60;;;;;;;14.78;41.78;99356.00;1759737;81;21191;-84
2021/05/05 06:08:50;;;;;;;6.95;4.87;;;;;;;14.59;42.37;99359.82;1759663;81;21594;-84
2021/05/05 06:11:17;;;;;;;8.63;3.62;;;;;;;14.38;42.56;99357.84;1759490;81;21831;-84
2021/05/05 06:13:44;;;;;;;6.35;3.20;;;;;;;14.11;43.19;99363.02;1759686;81;21758;-83
2021/05/05 06:16:11;;;;;;;4.17;2.37;;;;;;;14.01;43.60;99360.06;1759409;81;21215;-84
2021/05/05 06:18:38;;;;;;;4.17;2.12;;;;;;;13.93;43.88;99353.54;1759627;81;21276;-84
2021/05/05 06:21:07;;;;;;;4.70;2.50;;;;;;;13.84;44.06;99356.73;1759617;81;21177;-84
2021/05/05 06:23:34;;;;;;;4.08;1.80;;;;;;;13.65;44.22;99358.24;1759700;81;21129;-84
2021/05/05 06:26:01;;;;;;;9.55;1.95;;;;;;;13.46;44.59;99352.26;1759804;81;22852;-84
2021/05/05 06:28:28;;;;;;;3.80;1.22;;;;;;;13.36;44.87;99351.47;1759636;81;21536;-84
2021/05/05 06:30:57;;;;;;;3.35;1.50;;;;;;;13.31;45.31;99355.05;1759733;81;21148;-84
2021/05/05 06:33:28;;;;;;;3.65;1.40;;;;;;;13.27;45.48;99350.19;1759562;81;21239;-84
2021/05/05 06:35:56;;;;;;;4.20;1.72;;;;;;;13.15;45.47;99351.59;1759704;81;21148;-85
2021/05/05 06:38:30;;;;;;;4.60;1.82;;;;;;;13.05;45.80;99349.94;1759487;81;21928;-84
2021/05/05 06:41:00;;;;;;;6.42;1.60;;;;;;;13.05;45.99;99340.69;1759637;81;21152;-84
2021/05/05 06:43:27;;;;;;;3.10;1.60;;;;;;;13.07;45.98;99342.41;1759553;81;21383;-84
2021/05/05 06:45:54;;;;;;;3.65;1.20;;;;;;;13.16;45.99;99350.27;1759776;81;21136;-84
2021/05/05 06:48:21;;;;;;;2.42;1.40;;;;;;;13.18;45.94;99350.27;1759628;81;21622;-84
2021/05/05 06:50:48;;;;;;;3.05;1.30;;;;;;;13.22;45.61;99348.89;1759565;81;21831;-84
2021/05/05 06:53:16;;;;;;;2.62;1.30;;;;;;;13.25;45.66;99345.79;1759537;81;22244;-84
2021/05/05 06:55:43;;;;;;;2.72;1.25;;;;;;;13.29;45.96;99353.70;1759599;81;21477;-85
2021/05/05 06:58:10;;;;;;;5.28;1.50;;;;;;;13.48;46.01;99359.73;1759706;81;21179;-85
2021/05/05 07:00:37;;;;;;;3.83;1.40;;;;;;;13.62;46.10;99351.66;1759683;81;21219;-85
2021/05/05 07:03:05;;;;;;;2.45;1.25;;;;;;;13.83;46.04;99360.26;1759735;81;22755;-85
2021/05/05 07:05:32;;;;;;;2.55;1.47;;;;;;;13.90;45.59;99356.66;1759601;81;21139;-84
2021/05/05 07:07:59;;;;;;;4.37;1.30;;;;;;;13.76;45.45;99361.66;1759666;81;21583;-85
2021/05/05 07:10:26;;;;;;;1.52;1.00;;;;;;;13.76;45.40;99354.17;1759603;81;21331;-85
2021/05/05 07:12:54;;;;;;;6.25;1.45;;;;;;;13.76;45.45;99360.78;1759762;81;21192;-85
2021/05/05 07:15:21;;;;;;;3.17;1.60;;;;;;;13.73;45.44;99360.35;1759634;81;21943;-85
2021/05/05 07:17:48;;;;;;;3.40;1.52;;;;;;;13.99;45.84;99371.11;1759535;81;21228;-84
2021/05/05 07:20:16;;;;;;;4.03;1.42;;;;;;;14.30;45.96;99366.77;1759681;81;21666;-85
2021/05/05 07:22:43;;;;;;;5.10;1.42;;;;;;;14.51;45.86;99359.89;1759544;81;21239;-85
2021/05/05 07:25:11;;;;;;;2.92;1.10;;;;;;;14.80;45.90;99359.96;1759809;81;21161;-85
2021/05/05 07:27:38;;;;;;;2.90;1.40;;;;;;;15.06;45.82;99358.24;1759725;81;21948;-84
2021/05/05 07:30:08;;;;;;;6.17;1.50;;;;;;;15.25;45.36;99352.66;1759601;81;21144;-85
2021/05/05 07:32:36;;;;;;;2.42;1.40;;;;;;;15.21;44.91;99357.12;1759704;81;21118;-85
2021/05/05 07:35:07;;;;;;;2.25;1.22;;;;;;;15.25;44.88;99357.95;1759644;81;21199;-85
2021/05/05 07:50:41;;;;;;;2.08;1.15;;;;;;;15.27;43.76;99350.84;1888561;76;22981;-85
2021/05/05 07:53:09;;;;;;;5.47;1.35;;;;;;;15.17;43.79;99363.38;1856920;77;21158;-86
2021/05/05 07:55:36;;;;;;;2.83;1.55;;;;;;;15.11;43.88;99366.14;1856776;77;21937;-85
2021/05/05 07:58:03;;;;;;;3.15;1.52;;;;;;;14.99;43.84;99361.02;1856670;77;21152;-86
2021/05/05 08:00:30;;;;;;;4.33;1.35;;;;;;;14.86;43.90;99362.51;1856614;77;21131;-86
2021/05/05 08:02:57;;;;;;;3.42;1.10;;;;;;;14.70;43.84;99368.49;1856724;77;21598;-85
2021/05/05 08:05:24;;;;;;;1.40;0.95;;;;;;;14.59;43.50;99367.77;1856613;77;21657;-85
2021/05/05 08:07:53;;;;;;;6.08;1.40;;;;;;;14.55;43.39;99377.48;1856850;77;21879;-85
2021/05/05 08:10:21;;;;;;;2.22;1.32;;;;;;;14.53;43.47;99370.47;1856673;77;21135;-86
2021/05/05 08:12:50;;;;;;;4.47;1.30;;;;;;;14.53;43.41;99371.34;1856610;77;21577;-83
2021/05/05 08:15:17;;;;;;;4.55;1.80;;;;;;;14.52;43.31;99366.05;1826598;77;21123;-85
2021/05/05 08:17:46;;;;;;;3.77;1.30;;;;;;;14.32;42.98;99367.63;1856734;77;21201;-84
2021/05/05 08:20:14;;;;;;;5.15;2.25;;;;;;;14.28;43.32;99369.43;1856619;77;21869;-85
2021/05/05 08:22:41;;;;;;;3.00;2.22;;;;;;;14.23;43.53;99372.60;1856640;77;21154;-85
2021/05/05 08:25:10;;;;;;;4.78;2.20;;;;;;;14.18;43.42;99381.91;1856817;77;21178;-84
2021/05/05 08:27:37;;;;;;;11.93;2.75;;;;;;;14.14;43.62;99378.87;1856789;77;21155;-84
2021/05/05 08:30:07;;;;;;;3.58;2.25;;;;;;;14.31;43.87;99375.16;1853967;77;21198;-85
2021/05/05 08:32:34;;;;;;;3.80;2.87;;;;;;;14.51;43.66;99377.10;1856795;77;21242;-85
2021/05/05 08:35:01;;;;;;;7.78;3.92;;;;;;;14.71;43.54;99368.03;1856825;77;21164;-85
2021/05/05 08:37:28;;;;;;;5.35;3.20;;;;;;;14.86;43.35;99364.30;1856697;77;21743;-85
2021/05/05 08:39:55;;;;;;;9.35;3.62;;;;;;;15.02;43.22;99371.13;1856974;77;21440;-85
2021/05/05 08:42:22;;;;;;;12.20;9.55;;;;;;;15.15;43.24;99359.42;1856926;77;21099;-85
2021/05/05 08:44:49;;;;;;;9.13;3.47;;;;;;;15.42;43.27;99361.19;1856927;77;21878;-85
2021/05/05 08:47:17;;;;;;;4.65;2.35;;;;;;;15.62;43.14;99356.01;1856730;77;21111;-85
2021/05/05 08:49:44;;;;;;;5.72;2.25;;;;;;;15.74;42.89;99358.45;1856625;77;21528;-85
2021/05/05 08:52:11;;;;;;;4.33;2.83;;;;;;;15.60;42.56;99357.78;1856655;76;22256;-85
2021/05/05 08:54:38;;;;;;;5.05;2.58;;;;;;;15.52;42.68;99360.58;1856902;77;21162;-85
2021/05/05 08:57:05;;;;;;;3.87;2.98;;;;;;;15.46;42.36;99362.02;1856802;77;22076;-84
2021/05/05 08:59:33;;;;;;;4.53;2.92;;;;;;;15.45;42.28;99356.30;1856197;77;21587;-85
2021/05/05 09:02:00;;;;;;;8.38;3.65;;;;;;;15.48;42.04;99355.77;1782552;80;21161;-85
2021/05/05 09:04:28;;;;;;;3.80;2.08;;;;;;;15.39;41.74;99366.56;1784017;80;21199;-85
2021/05/05 09:06:59;;;;;;;11.35;2.10;;;;;;;15.30;41.71;99350.34;1782460;80;21627;-84
2021/05/05 09:09:44;;;;;;;1.70;1.25;;;;;;;15.31;41.70;99371.09;1783795;80;21897;-85
2021/05/05 09:12:25;;;;;;;3.85;1.12;;;;;;;15.17;41.22;99348.80;1782232;80;21171;-85
2021/05/05 09:15:03;;;;;;;2.80;1.40;;;;;;;15.25;41.25;99352.66;1784237;80;21100;-85
2021/05/05 09:17:34;;;;;;;3.25;1.40;;;;;;;15.32;41.17;99354.31;1781529;80;21647;-85
2021/05/05 09:20:33;;;;;;;2.25;1.20;;;;;;;15.40;41.50;99356.83;1784188;80;21148;-85
2021/05/05 09:23:03;;;;;;;3.90;1.25;;;;;;;15.64;41.53;99353.73;1782593;80;21894;-85
2021/05/05 09:25:36;;;;;;;3.70;1.30;;;;;;;15.71;41.38;99359.79;1783908;80;21179;-85
2021/05/05 09:28:21;;;;;;;3.55;1.50;;;;;;;15.64;40.85;99359.05;1782550;80;21125;-85
2021/05/05 09:31:10;;;;;;;2.95;1.40;;;;;;;15.36;40.89;99363.49;1784009;80;21195;-85
2021/05/05 09:33:44;;;;;;;5.40;1.50;;;;;;;15.04;40.95;99368.00;1782519;80;21136;-85
2021/05/05 09:36:09;;;;;;;2.10;1.32;;;;;;;14.72;41.25;99374.64;1783195;80;21826;-85
2021/05/05 09:38:50;;;;;;;3.92;1.57;;;;;;;14.45;41.67;99371.90;1782326;80;21152;-85
2021/05/05 09:41:22;;;;;;;2.83;1.25;;;;;;;14.38;42.12;99369.77;1784093;80;21144;-85
2021/05/05 09:43:51;;;;;;;3.80;1.30;;;;;;;14.46;41.94;99359.53;1782375;80;21176;-85
2021/05/05 09:46:44;;;;;;;3.42;1.60;;;;;;;14.63;41.92;99359.33;1783785;80;21654;-85
2021/05/05 09:49:37;;;;;;;3.58;1.87;;;;;;;14.91;41.91;99348.75;1782107;80;21963;-85
2021/05/05 09:52:11;;;;;;;5.47;2.17;;;;;;;15.23;41.93;99356.65;1792892;80;21179;-85
2021/05/05 09:54:40;;;;;;;3.87;1.30;;;;;;;15.51;41.35;99352.21;1782273;80;21145;-85
2021/05/05 09:57:17;;;;;;;2.52;1.45;;;;;;;15.58;40.77;99359.16;1792642;80;21195;-85
2021/05/05 10:00:06;;;;;;;4.80;2.60;;;;;;;15.67;40.72;99367.39;1792753;79;21650;-85
2021/05/05 10:02:47;;;;;;;6.83;2.00;;;;;;;15.64;40.47;99365.67;1792544;80;21888;-85
2021/05/05 10:05:27;;;;;;;2.60;1.60;;;;;;;15.44;40.64;99367.80;1782606;80;21172;-84
2021/05/05 10:08:03;;;;;;;2.08;1.07;;;;;;;15.40;41.02;99368.30;1792624;80;21481;-85
2021/05/05 10:10:42;;;;;;;6.53;1.25;;;;;;;15.43;41.09;99365.61;1792699;79;21184;-85
2021/05/05 10:13:11;;;;;;;2.25;0.98;;;;;;;15.50;41.23;99372.98;1792785;79;21124;-85
2021/05/05 10:15:42;;;;;;;3.92;1.60;;;;;;;15.71;41.30;99377.94;1782770;80;21832;-85
2021/05/05 10:20:53;;;;;;;5.37;1.17;;;;;;;15.96;40.63;99365.56;1888673;76;22651;-86
2021/05/05 10:23:21;;;;;;;3.05;1.12;;;;;;;16.03;40.71;99374.27;1856835;77;21115;-86
2021/05/05 10:25:51;;;;;;;2.45;1.30;;;;;;;16.13;40.53;99375.39;1856770;76;22777;-84
2021/05/05 10:28:18;;;;;;;4.90;1.37;;;;;;;16.32;40.54;99367.92;1856692;77;21166;-86
2021/05/05 10:30:45;;;;;;;2.90;1.05;;;;;;;16.48;40.35;99371.62;1856902;77;21166;-86
2021/05/05 10:33:18;;;;;;;4.47;0.90;;;;;;;16.67;40.07;99372.09;1856744;77;21584;-86
2021/05/05 10:35:43;;;;;;;3.00;1.30;;;;;;;16.79;40.00;99386.41;1856469;77;21150;-86
2021/05/05 10:38:34;;;;;;;6.87;1.57;;;;;;;16.84;39.84;99381.91;1857035;77;21884;-86
2021/05/05 10:41:10;;;;;;;2.77;0.90;;;;;;;16.68;39.59;99385.31;1856792;77;21550;-86
2021/05/05 10:43:52;;;;;;;2.22;0.85;;;;;;;16.39;40.12;99377.12;1856856;77;21550;-86
2021/05/05 10:46:36;;;;;;;2.98;0.98;;;;;;;16.28;40.63;99379.98;1856003;77;21190;-86
2021/05/05 10:49:12;;;;;;;2.08;1.32;;;;;;;16.29;40.26;99375.08;1856634;77;21642;-85
2021/05/05 10:51:56;;;;;;;2.05;0.90;;;;;;;16.28;40.49;99385.30;1856775;77;21937;-84
2021/05/05 10:54:25;;;;;;;1.80;0.90;;;;;;;16.47;40.48;99392.42;1854760;77;21210;-85
2021/05/05 10:57:12;;;;;;;3.45;1.07;;;;;;;16.58;40.22;99386.89;1821188;77;21146;-85
2021/05/05 11:00:10;;;;;;;1.95;1.00;;;;;;;16.61;39.85;99383.72;1856777;77;21169;-84
2021/05/05 11:02:58;;;;;;;2.77;0.85;;;;;;;16.64;39.56;99382.31;1856855;77;21201;-85
2021/05/05 11:05:33;;;;;;;2.87;1.02;;;;;;;16.41;39.31;99393.43;1856331;77;22096;-85
2021/05/05 11:08:07;;;;;;;3.60;1.02;;;;;;;16.35;39.44;99389.58;1856730;77;21282;-85
2021/05/05 11:10:40;;;;;;;3.12;1.07;;;;;;;16.40;39.67;99396.98;1856871;77;21143;-85
2021/05/05 11:13:22;;;;;;;1.90;0.95;;;;;;;16.43;39.44;99390.75;1857009;77;21118;-85
2021/05/05 11:15:55;;;;;;;5.55;1.05;;;;;;;16.55;39.38;99394.92;1856875;77;21256;-85
2021/05/05 11:18:34;;;;;;;4.70;1.03;;;;;;;16.44;39.10;99387.17;1857058;77;21168;-84
2021/05/05 11:21:30;;;;;;;2.20;0.88;;;;;;;16.29;39.23;99401.63;1856289;77;22273;-85
2021/05/05 11:23:58;;;;;;;2.35;1.10;;;;;;;16.18;39.35;99401.87;1856792;77;21166;-86
2021/05/05 11:26:31;;;;;;;1.77;1.10;;;;;;;16.22;39.56;99410.19;1856828;77;21708;-85
2021/05/05 11:29:08;;;;;;;2.90;0.70;;;;;;;16.33;39.62;99406.00;1856999;77;21103;-85
2021/05/05 11:31:55;;;;;;;1.67;0.90;;;;;;;16.41;39.64;99391.23;1856248;77;22775;-85
2021/05/05 11:34:28;;;;;;;2.00;0.90;;;;;;;16.21;39.19;99396.47;1856226;77;21122;-85
2021/05/05 11:37:06;;;;;;;3.37;0.95;;;;;;;15.92;39.24;99391.75;1856357;77;21079;-85
2021/05/05 11:39:38;;;;;;;1.77;0.88;;;;;;;15.87;39.59;99392.27;1856183;77;21147;-85
2021/05/05 11:42:22;;;;;;;2.20;1.00;;;;;;;15.66;39.23;99399.67;1856327;77;21109;-85
2021/05/05 11:44:55;;;;;;;2.05;0.90;;;;;;;15.49;39.78;99397.77;1856310;77;21868;-85
2021/05/05 11:47:33;;;;;;;1.27;0.98;;;;;;;15.46;40.15;99400.47;1855241;77;21127;-85
2021/05/05 11:50:25;;;;;;;2.52;1.00;;;;;;;15.55;40.15;99401.64;1856134;77;21163;-85
2021/05/05 11:52:51;;;;;;;1.17;0.82;;;;;;;15.66;40.00;99400.14;1854314;77;21653;-85
2021/05/05 11:55:28;;;;;;;1.30;0.78;;;;;;;15.68;39.93;99400.52;1856228;77;21119;-85
2021/05/05 11:57:58;;;;;;;5.60;1.12;;;;;;;15.69;40.09;99394.33;1856168;77;21738;-85
2021/05/05 12:00:35;;;;;;;2.87;1.00;;;;;;;15.58;39.80;99392.74;1855988;77;21146;-84
2021/05/05 12:03:07;;;;;;;2.80;0.80;;;;;;;15.45;40.07;99391.64;1856060;77;21138;-84
2021/05/05 12:05:43;;;;;;;2.25;0.80;;;;;;;15.49;39.96;99377.42;1825640;77;21154;-84
2021/05/05 12:08:17;;;;;;;2.77;1.00;;;;;;;15.65;39.62;99379.34;1856162;77;21174;-85
2021/05/05 12:10:54;;;;;;;5.20;1.00;;;;;;;15.77;39.51;99378.77;1856334;77;22859;-85